Time;durP1;ratioP1;P1;durP2;ratioP2;P2;SDS_P1;SDS_P2;PMS_P1;PMS_P2;Temp;Humidity;BMP_temperature;BMP_pressure;BME280_temperature;BME280_humidity;BME280_pressure;Samples;Min_cycle;Max_cycle;Signal;HPM_P1;HPM_P2
2023/09/23 00:01:37;;;;;;;1.45;0.70;;;21.90;59.40;;;;;;5077769;28;20198;-80
2023/09/23 00:04:06;;;;;;;0.52;0.52;;;21.90;59.40;;;;;;5077652;28;20206;-81
2023/09/23 00:06:33;;;;;;;1.00;0.77;;;21.90;59.50;;;;;;5078002;28;20217;-81
2023/09/23 00:09:01;;;;;;;0.73;0.55;;;21.90;59.50;;;;;;5078173;28;20194;-80
2023/09/23 00:11:28;;;;;;;0.60;0.60;;;21.90;59.50;;;;;;5077299;28;20267;-80
2023/09/23 00:13:55;;;;;;;0.70;0.70;;;21.90;59.50;;;;;;5076851;28;20204;-80
2023/09/23 00:16:22;;;;;;;0.98;0.80;;;21.90;59.50;;;;;;5076543;28;20210;-80
2023/09/23 00:18:49;;;;;;;0.70;0.70;;;21.80;59.50;;;;;;5076947;28;20205;-80
2023/09/23 00:21:17;;;;;;;0.80;0.80;;;21.80;59.50;;;;;;5077523;28;20194;-80
2023/09/23 00:23:46;;;;;;;1.17;0.90;;;21.80;59.50;;;;;;5077233;28;20209;-80
2023/09/23 00:26:17;;;;;;;1.20;0.68;;;21.70;59.50;;;;;;5077007;28;20249;-81
2023/09/23 00:28:49;;;;;;;1.05;0.77;;;21.70;59.50;;;;;;5076663;28;20243;-80
2023/09/23 00:31:16;;;;;;;0.68;0.68;;;21.80;59.60;;;;;;5076571;28;20233;-81
2023/09/23 00:33:44;;;;;;;0.57;0.57;;;21.70;59.50;;;;;;5077240;28;20190;-81
2023/09/23 00:36:11;;;;;;;0.77;0.77;;;21.70;59.60;;;;;;5059729;28;20684;-81
2023/09/23 00:38:40;;;;;;;0.75;0.60;;;21.70;59.50;;;;;;5076321;28;20727;-81
2023/09/23 00:41:08;;;;;;;0.88;0.73;;;21.80;59.70;;;;;;5076687;28;20198;-81
2023/09/23 00:43:34;;;;;;;0.70;0.70;;;21.80;59.60;;;;;;5076258;28;20198;-81
2023/09/23 00:46:03;;;;;;;0.60;0.60;;;21.70;59.60;;;;;;5076344;28;20224;-80
2023/09/23 00:48:36;;;;;;;0.60;0.60;;;21.80;59.60;;;;;;5076457;28;20198;-80
2023/09/23 00:51:03;;;;;;;0.63;0.63;;;21.70;59.50;;;;;;5076337;28;20210;-81
2023/09/23 00:53:30;;;;;;;1.08;1.00;;;21.80;59.60;;;;;;5076848;28;20194;-80
2023/09/23 00:56:00;;;;;;;0.75;0.70;;;21.70;59.50;;;;;;5078623;28;20221;-81
2023/09/23 00:58:27;;;;;;;1.30;0.70;;;21.70;59.50;;;;;;5077146;28;20194;-81
2023/09/23 01:00:55;;;;;;;0.70;0.70;;;21.70;59.50;;;;;;5077922;28;20644;-81
2023/09/23 01:03:23;;;;;;;0.57;0.57;;;21.70;59.50;;;;;;5077904;28;20277;-81
2023/09/23 01:06:00;;;;;;;1.70;0.68;;;21.70;59.50;;;;;;5095359;28;20221;-81
2023/09/23 01:08:28;;;;;;;1.73;0.88;;;21.70;59.50;;;;;;5077054;28;20670;-81
2023/09/23 01:10:55;;;;;;;1.48;0.55;;;21.70;60.00;;;;;;5077246;28;20214;-81
2023/09/23 01:13:24;;;;;;;0.70;0.70;;;21.70;59.50;;;;;;5077348;28;20201;-80
2023/09/23 01:15:51;;;;;;;0.80;0.70;;;21.70;59.50;;;;;;5076925;28;20252;-81
2023/09/23 01:18:18;;;;;;;0.70;0.70;;;21.70;59.50;;;;;;5077270;28;20198;-80
2023/09/23 01:20:48;;;;;;;0.68;0.68;;;21.80;59.50;;;;;;5076038;28;20198;-80
2023/09/23 01:23:17;;;;;;;1.70;0.80;;;21.70;59.50;;;;;;5076085;28;20194;-80
2023/09/23 01:25:44;;;;;;;0.47;0.47;;;21.70;59.50;;;;;;5075700;28;20684;-81
2023/09/23 01:28:12;;;;;;;0.70;0.70;;;21.70;59.50;;;;;;5078391;28;20198;-81
2023/09/23 01:30:40;;;;;;;0.70;0.70;;;21.70;59.50;;;;;;5063735;28;20224;-81
2023/09/23 01:33:08;;;;;;;0.70;0.70;;;21.70;59.50;;;;;;5065138;28;20201;-80
2023/09/23 01:35:35;;;;;;;0.73;0.60;;;21.60;59.50;;;;;;5081244;28;20750;-81
2023/09/23 01:38:03;;;;;;;0.75;0.75;;;21.60;59.50;;;;;;5081266;28;20194;-80
2023/09/23 01:40:32;;;;;;;0.82;0.82;;;21.70;59.60;;;;;;5081690;28;20302;-81
2023/09/23 01:42:59;;;;;;;0.63;0.63;;;21.60;59.50;;;;;;5082083;28;20202;-81
2023/09/23 01:45:28;;;;;;;0.50;0.50;;;21.60;59.50;;;;;;5082193;28;20305;-81
2023/09/23 01:47:56;;;;;;;0.70;0.70;;;21.60;59.50;;;;;;5065031;28;20239;-80
2023/09/23 01:50:24;;;;;;;0.80;0.80;;;21.60;59.60;;;;;;5080692;28;20198;-81
2023/09/23 01:52:51;;;;;;;0.60;0.60;;;21.60;60.20;;;;;;5081693;28;20206;-81
2023/09/23 01:55:18;;;;;;;0.63;0.63;;;21.50;59.50;;;;;;5088141;28;20270;-80
2023/09/23 01:57:49;;;;;;;0.93;0.80;;;21.50;59.50;;;;;;5104408;28;20224;-81
2023/09/23 02:00:18;;;;;;;0.77;0.63;;;21.60;59.70;;;;;;5104330;28;20158;-80
2023/09/23 02:02:45;;;;;;;1.58;0.65;;;21.60;59.70;;;;;;5121846;28;20192;-81
2023/09/23 02:05:12;;;;;;;0.70;0.70;;;21.50;59.60;;;;;;5097330;28;20225;-81
2023/09/23 02:07:41;;;;;;;1.08;0.80;;;21.50;59.60;;;;;;5062943;28;20544;-81
2023/09/23 02:10:09;;;;;;;1.17;0.60;;;21.50;59.70;;;;;;5080457;28;20259;-81
2023/09/23 02:12:35;;;;;;;0.77;0.77;;;21.50;59.70;;;;;;5091494;28;20650;-81
2023/09/23 02:15:06;;;;;;;1.42;0.68;;;21.50;59.70;;;;;;5078675;28;20205;-81
2023/09/23 02:17:35;;;;;;;0.80;0.70;;;21.50;59.80;;;;;;5078728;28;20191;-81
2023/09/23 02:20:03;;;;;;;0.57;0.52;;;21.40;59.70;;;;;;5078614;28;20198;-81
2023/09/23 02:22:31;;;;;;;0.88;0.68;;;21.40;59.70;;;;;;5078359;28;20194;-81
2023/09/23 02:24:58;;;;;;;0.70;0.70;;;21.40;59.70;;;;;;5078341;28;20247;-80
2023/09/23 02:27:26;;;;;;;1.25;0.80;;;21.40;59.70;;;;;;5078609;28;20193;-80
2023/09/23 02:29:53;;;;;;;0.85;0.70;;;21.40;59.70;;;;;;5062357;28;20238;-80
2023/09/23 02:32:21;;;;;;;0.63;0.63;;;21.40;59.70;;;;;;5078870;28;20664;-81
2023/09/23 02:34:48;;;;;;;0.63;0.52;;;21.40;59.80;;;;;;5078088;28;20194;-80
2023/09/23 02:37:15;;;;;;;0.50;0.50;;;21.40;59.80;;;;;;5078153;28;20706;-81
2023/09/23 02:39:43;;;;;;;0.43;0.43;;;21.30;59.70;;;;;;5078125;28;20198;-81
2023/09/23 02:42:12;;;;;;;0.70;0.70;;;21.40;59.80;;;;;;5061771;28;20195;-80
2023/09/23 02:44:39;;;;;;;0.60;0.60;;;21.40;59.80;;;;;;5078411;28;20194;-80
2023/09/23 02:47:06;;;;;;;1.35;0.80;;;21.30;59.70;;;;;;5061600;28;20671;-80
2023/09/23 02:49:34;;;;;;;1.17;0.63;;;21.40;59.80;;;;;;5061358;28;20614;-80
2023/09/23 02:52:02;;;;;;;0.77;0.70;;;21.30;59.80;;;;;;5060977;28;20245;-81
2023/09/23 02:54:29;;;;;;;1.00;0.90;;;21.40;59.90;;;;;;5077733;28;20297;-81
2023/09/23 02:56:56;;;;;;;0.68;0.68;;;21.30;59.80;;;;;;5078055;28;20210;-80
2023/09/23 02:59:26;;;;;;;0.57;0.52;;;21.30;59.90;;;;;;5078321;28;20230;-80
2023/09/23 03:01:53;;;;;;;0.50;0.50;;;21.30;59.90;;;;;;5082423;28;20190;-81
2023/09/23 03:04:23;;;;;;;0.70;0.60;;;21.30;59.90;;;;;;5078372;28;20209;-80
2023/09/23 03:06:56;;;;;;;0.47;0.45;;;21.30;59.90;;;;;;5078491;28;20229;-80
2023/09/23 03:09:25;;;;;;;0.70;0.70;;;21.30;59.70;;;;;;5078795;28;20197;-81
2023/09/23 03:11:55;;;;;;;0.50;0.50;;;21.30;59.50;;;;;;5077954;28;20218;-81
2023/09/23 03:14:27;;;;;;;0.52;0.52;;;21.30;59.30;;;;;;5078079;28;20194;-81
2023/09/23 03:16:57;;;;;;;0.80;0.80;;;21.30;59.40;;;;;;5077548;28;20314;-81
2023/09/23 03:19:25;;;;;;;0.70;0.70;;;21.30;59.40;;;;;;5077530;28;20190;-81
2023/09/23 03:21:56;;;;;;;0.50;0.50;;;21.30;59.40;;;;;;5077624;28;20236;-81
2023/09/23 03:24:25;;;;;;;0.70;0.70;;;21.30;59.20;;;;;;5078159;28;20201;-80
2023/09/23 03:26:53;;;;;;;0.75;0.73;;;21.40;59.10;;;;;;5077503;28;20218;-81
2023/09/23 03:29:22;;;;;;;0.85;0.60;;;21.40;58.90;;;;;;5076967;28;20620;-81
2023/09/23 03:31:49;;;;;;;0.50;0.50;;;21.40;58.70;;;;;;5076719;28;20681;-81
2023/09/23 03:34:16;;;;;;;0.52;0.52;;;21.50;58.80;;;;;;5077462;28;20190;-81
2023/09/23 03:36:44;;;;;;;0.40;0.40;;;21.50;58.60;;;;;;5077402;28;20210;-81
2023/09/23 03:39:12;;;;;;;1.05;0.60;;;21.50;58.60;;;;;;5077149;28;20564;-81
2023/09/23 03:41:39;;;;;;;0.60;0.60;;;21.50;58.50;;;;;;5077422;28;20227;-80
2023/09/23 03:44:07;;;;;;;0.80;0.60;;;21.60;58.40;;;;;;5078271;28;20599;-81
2023/09/23 03:46:35;;;;;;;1.75;0.63;;;21.60;58.30;;;;;;5077369;28;20271;-80
2023/09/23 03:49:02;;;;;;;1.75;0.68;;;21.60;58.20;;;;;;5077363;28;20202;-81
2023/09/23 03:51:31;;;;;;;0.95;0.65;;;21.70;58.20;;;;;;5076485;28;20293;-81
2023/09/23 03:53:58;;;;;;;1.13;0.77;;;21.70;58.10;;;;;;5078760;28;20236;-81
2023/09/23 03:56:27;;;;;;;0.60;0.60;;;21.70;58.10;;;;;;5060156;28;20263;-81
2023/09/23 03:58:56;;;;;;;0.70;0.70;;;21.60;58.00;;;;;;5077783;28;20643;-81
2023/09/23 04:01:24;;;;;;;1.45;0.73;;;21.60;58.00;;;;;;5077346;28;20297;-81
2023/09/23 04:03:52;;;;;;;1.42;0.60;;;21.60;58.00;;;;;;5076744;28;20249;-81
2023/09/23 04:06:19;;;;;;;0.60;0.60;;;21.60;58.10;;;;;;5060233;28;20225;-81
2023/09/23 04:08:46;;;;;;;0.55;0.55;;;21.60;58.10;;;;;;5076587;28;20198;-81
2023/09/23 04:11:15;;;;;;;0.75;0.70;;;21.60;58.10;;;;;;5076680;28;20202;-81
2023/09/23 04:13:44;;;;;;;0.70;0.70;;;21.50;58.00;;;;;;5076782;28;20308;-81
2023/09/23 04:16:11;;;;;;;0.77;0.70;;;21.60;58.20;;;;;;5077680;28;20317;-81
2023/09/23 04:18:39;;;;;;;0.77;0.70;;;21.50;58.20;;;;;;5077584;28;20190;-81
2023/09/23 04:21:06;;;;;;;0.85;0.80;;;21.50;58.10;;;;;;5077544;28;20292;-81
2023/09/23 04:23:33;;;;;;;0.60;0.60;;;21.50;58.20;;;;;;5076687;28;20210;-81
2023/09/23 04:26:03;;;;;;;0.73;0.73;;;21.40;58.10;;;;;;5076592;28;20688;-82
2023/09/23 04:28:29;;;;;;;0.93;0.68;;;21.40;58.20;;;;;;5076843;28;20194;-81
2023/09/23 04:30:58;;;;;;;2.50;0.88;;;21.40;58.20;;;;;;5076803;28;20198;-82
2023/09/23 04:33:27;;;;;;;1.50;1.40;;;21.40;58.20;;;;;;5076640;28;20229;-81
2023/09/23 04:35:55;;;;;;;0.80;0.80;;;21.40;58.60;;;;;;5060373;28;20249;-81
2023/09/23 04:38:22;;;;;;;1.63;0.90;;;21.40;58.70;;;;;;5076762;28;20229;-81
2023/09/23 04:40:50;;;;;;;1.17;0.85;;;21.30;58.60;;;;;;5076246;28;20553;-82
2023/09/23 04:43:17;;;;;;;0.80;0.70;;;21.30;58.70;;;;;;5076207;28;20190;-84
2023/09/23 04:45:44;;;;;;;0.77;0.63;;;21.30;58.70;;;;;;5076334;28;20209;-83
2023/09/23 04:48:14;;;;;;;0.75;0.75;;;21.30;58.90;;;;;;5076061;28;20202;-83
2023/09/23 04:50:41;;;;;;;1.67;0.80;;;21.30;58.80;;;;;;5076635;28;20213;-83
2023/09/23 04:53:08;;;;;;;1.30;0.70;;;21.30;58.90;;;;;;5075712;28;20221;-83
2023/09/23 04:55:36;;;;;;;0.77;0.70;;;21.20;58.70;;;;;;5076390;28;20608;-82
2023/09/23 04:58:04;;;;;;;1.50;0.85;;;21.20;59.00;;;;;;5060076;28;20217;-83
2023/09/23 05:00:32;;;;;;;2.53;0.80;;;21.20;59.20;;;;;;5077069;28;20201;-82
2023/09/23 05:02:59;;;;;;;0.82;0.60;;;21.20;58.80;;;;;;5081374;28;20688;-83
2023/09/23 05:05:28;;;;;;;3.00;0.95;;;21.20;58.40;;;;;;5080968;28;20221;-82
2023/09/23 05:07:55;;;;;;;0.88;0.70;;;21.20;58.10;;;;;;5081081;28;20202;-82
2023/09/23 05:10:23;;;;;;;1.73;0.90;;;21.20;58.20;;;;;;5083049;28;20200;-84
2023/09/23 05:12:54;;;;;;;1.50;0.85;;;21.20;58.00;;;;;;5082919;28;20253;-83
2023/09/23 05:15:21;;;;;;;2.45;0.93;;;21.20;58.10;;;;;;5080599;28;20217;-83
2023/09/23 05:17:49;;;;;;;2.05;0.80;;;21.20;58.00;;;;;;5080510;28;20198;-83
2023/09/23 05:20:25;;;;;;;1.77;0.77;;;21.20;57.60;;;;;;5063119;28;20190;-83
2023/09/23 05:22:54;;;;;;;1.10;0.93;;;21.10;57.60;;;;;;5080064;28;20186;-82
2023/09/23 05:25:24;;;;;;;1.38;0.80;;;21.20;57.90;;;;;;5079632;28;20225;-83
2023/09/23 05:27:53;;;;;;;0.75;0.75;;;21.10;56.50;;;;;;5079460;28;20198;-82
2023/09/23 05:30:21;;;;;;;0.90;0.60;;;21.10;56.00;;;;;;5080145;28;20190;-82
2023/09/23 05:32:48;;;;;;;1.67;0.70;;;21.10;55.80;;;;;;5079504;28;20233;-82
2023/09/23 05:35:15;;;;;;;1.20;0.88;;;21.10;55.80;;;;;;5080474;28;20214;-82
2023/09/23 05:37:43;;;;;;;0.82;0.80;;;21.10;55.50;;;;;;5062770;28;20649;-82
2023/09/23 05:40:23;;;;;;;0.63;0.52;;;21.00;55.30;;;;;;5079877;28;20217;-82
2023/09/23 05:42:50;;;;;;;0.90;0.88;;;21.00;55.00;;;;;;5079784;28;20292;-82
2023/09/23 05:45:18;;;;;;;1.83;0.80;;;21.00;55.00;;;;;;5080268;28;20711;-82
2023/09/23 05:47:46;;;;;;;0.57;0.57;;;21.00;54.70;;;;;;5081073;28;20251;-81
2023/09/23 05:50:16;;;;;;;0.65;0.65;;;21.00;54.80;;;;;;5079702;28;20288;-80
2023/09/23 05:52:45;;;;;;;1.00;0.73;;;21.00;56.10;;;;;;5079252;28;20214;-81
2023/09/23 05:55:14;;;;;;;0.95;0.85;;;21.00;56.20;;;;;;5080710;28;20208;-82
2023/09/23 05:57:41;;;;;;;1.08;0.80;;;21.00;56.20;;;;;;5079759;28;20606;-82
2023/09/23 06:00:08;;;;;;;1.10;0.80;;;21.00;56.30;;;;;;5080804;28;20228;-82
2023/09/23 06:02:35;;;;;;;1.23;0.90;;;21.00;56.20;;;;;;5080034;28;20252;-82
2023/09/23 06:05:02;;;;;;;0.80;0.80;;;21.00;56.00;;;;;;5079516;28;20205;-82
2023/09/23 06:07:31;;;;;;;1.02;0.60;;;21.00;55.60;;;;;;5078867;28;20212;-82
2023/09/23 06:09:59;;;;;;;0.50;0.50;;;21.00;55.40;;;;;;5080083;28;20682;-81
2023/09/23 06:12:30;;;;;;;1.27;0.80;;;21.10;55.50;;;;;;5078152;28;20218;-82
2023/09/23 06:14:58;;;;;;;1.77;0.80;;;21.10;55.40;;;;;;5078384;28;20243;-82
2023/09/23 06:17:25;;;;;;;1.83;0.82;;;21.10;55.40;;;;;;5078935;28;20194;-82
2023/09/23 06:19:52;;;;;;;0.77;0.70;;;21.20;55.50;;;;;;5078533;28;20564;-82
2023/09/23 06:24:59;;;;;;;0.70;0.70;;;21.30;55.40;;;;;;5035848;28;20754;-79
2023/09/23 06:27:26;;;;;;;0.80;0.70;;;21.30;55.20;;;;;;5038410;28;20253;-79
2023/09/23 06:29:55;;;;;;;1.30;0.75;;;21.30;55.10;;;;;;5038055;28;20566;-79
2023/09/23 06:32:22;;;;;;;0.80;0.80;;;21.40;55.10;;;;;;5037994;28;20196;-79
2023/09/23 06:34:49;;;;;;;1.00;0.85;;;21.40;55.00;;;;;;5038029;28;20195;-79
2023/09/23 06:37:16;;;;;;;1.05;0.90;;;21.40;54.90;;;;;;5038200;28;20314;-79
2023/09/23 06:39:43;;;;;;;0.63;0.63;;;21.50;54.90;;;;;;5021532;28;20191;-79
2023/09/23 06:42:10;;;;;;;0.73;0.73;;;21.50;54.80;;;;;;5037832;28;20195;-79
2023/09/23 06:44:37;;;;;;;0.75;0.70;;;21.60;54.80;;;;;;5055576;28;20184;-79
2023/09/23 06:47:05;;;;;;;1.20;0.93;;;21.60;54.70;;;;;;5038139;28;20220;-79
2023/09/23 06:49:32;;;;;;;1.70;0.70;;;21.60;54.60;;;;;;5021119;28;20245;-79
2023/09/23 06:51:59;;;;;;;0.70;0.60;;;21.60;54.50;;;;;;5055469;28;20192;-79
2023/09/23 06:54:26;;;;;;;0.82;0.82;;;21.70;54.40;;;;;;5021051;28;20212;-79
2023/09/23 06:56:54;;;;;;;0.80;0.80;;;21.70;54.30;;;;;;5037507;28;20743;-79
2023/09/23 06:59:21;;;;;;;0.80;0.80;;;21.70;54.20;;;;;;5055180;28;20208;-79
2023/09/23 07:01:48;;;;;;;0.90;0.90;;;21.70;54.10;;;;;;5037736;28;20195;-79
2023/09/23 07:04:16;;;;;;;0.50;0.43;;;21.80;54.00;;;;;;5020893;28;20253;-79
2023/09/23 07:06:43;;;;;;;0.82;0.82;;;21.90;53.90;;;;;;5037353;28;20226;-79
2023/09/23 07:09:10;;;;;;;0.88;0.88;;;21.90;53.80;;;;;;5037294;28;20202;-79
2023/09/23 07:11:38;;;;;;;1.10;0.82;;;22.00;53.70;;;;;;5037289;28;20204;-79
2023/09/23 07:14:06;;;;;;;0.80;0.80;;;22.00;53.60;;;;;;5037353;28;20223;-79
2023/09/23 07:16:33;;;;;;;0.95;0.90;;;22.10;53.50;;;;;;5038091;28;20222;-79
2023/09/23 07:19:00;;;;;;;1.35;0.80;;;22.20;53.40;;;;;;5042174;28;20226;-78
2023/09/23 07:21:29;;;;;;;0.80;0.80;;;22.30;53.10;;;;;;5037261;28;20206;-78
2023/09/23 07:23:57;;;;;;;1.00;0.90;;;22.40;52.90;;;;;;5036608;28;20238;-78
2023/09/23 07:26:24;;;;;;;0.80;0.63;;;22.50;52.70;;;;;;5020889;28;20221;-78
2023/09/23 07:28:51;;;;;;;0.82;0.82;;;22.50;52.20;;;;;;5036932;28;20203;-79
2023/09/23 07:31:18;;;;;;;0.93;0.90;;;22.60;52.10;;;;;;5036834;28;20203;-78
2023/09/23 07:33:45;;;;;;;1.40;0.80;;;22.80;52.00;;;;;;5036778;28;20228;-78
2023/09/23 07:36:13;;;;;;;0.77;0.77;;;22.80;51.70;;;;;;5036919;28;20694;-77
2023/09/23 07:38:41;;;;;;;1.10;0.90;;;23.00;51.50;;;;;;5036564;28;20205;-77
2023/09/23 07:41:08;;;;;;;2.15;0.80;;;23.10;51.20;;;;;;5036508;28;20203;-79
2023/09/23 07:43:38;;;;;;;1.38;0.73;;;23.30;51.00;;;;;;5036454;28;20199;-79
2023/09/23 07:46:05;;;;;;;1.15;0.90;;;23.30;50.70;;;;;;5036547;28;20223;-79
2023/09/23 07:48:32;;;;;;;0.85;0.85;;;23.40;50.70;;;;;;5036601;28;20253;-79
2023/09/23 07:50:59;;;;;;;0.98;0.80;;;23.50;50.50;;;;;;5036684;28;20195;-79
2023/09/23 07:53:26;;;;;;;0.80;0.80;;;23.60;50.70;;;;;;5036407;28;20273;-79
2023/09/23 07:55:55;;;;;;;0.70;0.70;;;23.70;50.10;;;;;;5036536;28;20215;-79
2023/09/23 07:58:22;;;;;;;0.90;0.80;;;23.80;49.80;;;;;;5036475;28;20199;-78
2023/09/23 08:00:49;;;;;;;1.35;0.80;;;23.80;49.60;;;;;;5020140;28;20203;-78
2023/09/23 08:03:16;;;;;;;1.00;0.85;;;24.00;49.50;;;;;;5036442;28;20210;-78
2023/09/23 08:05:44;;;;;;;1.30;0.82;;;24.10;49.30;;;;;;5020370;28;20309;-78
2023/09/23 08:08:11;;;;;;;1.35;1.00;;;24.20;49.10;;;;;;5036411;28;20210;-78
2023/09/23 08:10:38;;;;;;;0.60;0.50;;;24.30;48.90;;;;;;5020104;28;20203;-78
2023/09/23 08:13:07;;;;;;;0.85;0.70;;;24.30;48.70;;;;;;5036244;28;20226;-78
2023/09/23 08:15:34;;;;;;;0.93;0.70;;;24.50;48.30;;;;;;5037205;28;20211;-79
2023/09/23 08:18:00;;;;;;;0.82;0.70;;;24.50;47.90;;;;;;5036216;28;20222;-79
2023/09/23 08:20:27;;;;;;;1.13;1.00;;;24.70;47.70;;;;;;5036447;28;20707;-79
2023/09/23 08:22:54;;;;;;;0.63;0.60;;;24.70;47.50;;;;;;5036057;28;20214;-79
2023/09/23 08:25:21;;;;;;;0.63;0.63;;;24.80;47.10;;;;;;5036122;28;20219;-79
2023/09/23 08:27:49;;;;;;;0.75;0.73;;;24.90;47.00;;;;;;5036379;28;20198;-78
2023/09/23 08:30:17;;;;;;;1.15;0.93;;;24.90;46.90;;;;;;5036128;28;20277;-78
2023/09/23 08:32:44;;;;;;;1.48;0.77;;;25.00;46.90;;;;;;5036446;28;20183;-78
2023/09/23 08:35:11;;;;;;;1.10;0.73;;;25.00;46.80;;;;;;5036396;28;20225;-78
2023/09/23 08:37:38;;;;;;;0.68;0.68;;;25.00;46.60;;;;;;5036823;28;20248;-78
2023/09/23 08:40:10;;;;;;;0.70;0.70;;;25.10;46.60;;;;;;5036439;28;20202;-78
2023/09/23 08:42:37;;;;;;;0.50;0.50;;;25.20;46.50;;;;;;5036808;28;20191;-78
2023/09/23 08:45:07;;;;;;;1.48;0.70;;;25.30;46.30;;;;;;5036748;28;20195;-78
2023/09/23 08:47:35;;;;;;;0.60;0.60;;;25.30;46.20;;;;;;5036670;28;20348;-79
2023/09/23 08:50:03;;;;;;;0.70;0.70;;;25.40;46.00;;;;;;5036485;28;20249;-79
2023/09/23 08:52:30;;;;;;;0.73;0.70;;;25.40;45.70;;;;;;5019970;28;20190;-79
2023/09/23 08:54:58;;;;;;;0.75;0.70;;;25.50;45.60;;;;;;5036389;28;20210;-80
2023/09/23 08:57:25;;;;;;;0.80;0.80;;;25.60;45.60;;;;;;5036423;28;20615;-80
2023/09/23 08:59:51;;;;;;;0.55;0.55;;;25.60;45.40;;;;;;5036260;28;20203;-79
2023/09/23 09:02:20;;;;;;;0.70;0.70;;;25.70;45.30;;;;;;5036143;28;20202;-79
2023/09/23 09:04:48;;;;;;;1.05;0.95;;;25.70;45.20;;;;;;5037701;28;20393;-79
2023/09/23 09:07:15;;;;;;;1.05;0.85;;;25.70;45.00;;;;;;5036204;28;20222;-79
2023/09/23 09:09:42;;;;;;;0.73;0.70;;;25.80;45.00;;;;;;5036489;28;20668;-79
2023/09/23 09:12:09;;;;;;;1.75;0.60;;;25.80;44.90;;;;;;5036324;28;20203;-79
2023/09/23 09:14:36;;;;;;;0.95;0.70;;;25.90;44.90;;;;;;5036065;28;20226;-79
2023/09/23 09:17:04;;;;;;;0.90;0.73;;;25.90;44.70;;;;;;5036667;28;20215;-80
2023/09/23 09:19:31;;;;;;;0.98;0.85;;;25.90;44.70;;;;;;5037285;28;20199;-80
2023/09/23 09:21:59;;;;;;;0.85;0.85;;;25.90;44.60;;;;;;5037362;28;20195;-79
2023/09/23 09:24:27;;;;;;;0.90;0.80;;;25.90;44.40;;;;;;5037358;28;20241;-79
2023/09/23 09:26:54;;;;;;;1.02;0.82;;;25.90;44.30;;;;;;5038764;28;20222;-79
2023/09/23 09:29:22;;;;;;;1.08;0.90;;;26.00;44.30;;;;;;5038790;28;20203;-80
2023/09/23 09:31:50;;;;;;;1.13;0.70;;;26.00;44.30;;;;;;5039372;28;20245;-80
2023/09/23 09:34:18;;;;;;;1.27;0.82;;;26.00;44.10;;;;;;5037208;28;20268;-79
2023/09/23 09:36:45;;;;;;;1.13;0.70;;;26.00;44.10;;;;;;5035727;28;20562;-79
2023/09/23 09:39:14;;;;;;;0.75;0.75;;;26.00;44.10;;;;;;5035949;28;20198;-80
2023/09/23 09:41:46;;;;;;;0.77;0.77;;;26.00;44.10;;;;;;5037372;28;20207;-80
2023/09/23 09:44:14;;;;;;;0.57;0.57;;;26.00;44.20;;;;;;5037747;28;20278;-80
2023/09/23 09:46:42;;;;;;;0.60;0.60;;;26.00;44.20;;;;;;5037044;28;20264;-80
2023/09/23 09:49:09;;;;;;;0.80;0.70;;;25.90;44.10;;;;;;5040052;28;20542;-80
2023/09/23 09:51:37;;;;;;;0.93;0.70;;;26.00;44.10;;;;;;5041280;28;20305;-80
2023/09/23 09:54:04;;;;;;;0.80;0.70;;;26.00;44.10;;;;;;5041175;28;20238;-80
2023/09/23 09:56:33;;;;;;;0.75;0.68;;;26.00;44.10;;;;;;5040580;28;20225;-80
2023/09/23 09:59:03;;;;;;;1.90;0.95;;;26.00;44.00;;;;;;5041609;28;20191;-78
2023/09/23 10:01:30;;;;;;;1.20;1.00;;;26.00;44.00;;;;;;5040007;28;20189;-78
2023/09/23 10:03:59;;;;;;;1.67;0.93;;;26.00;44.00;;;;;;5040891;28;20198;-78
2023/09/23 10:06:26;;;;;;;1.42;0.93;;;26.00;44.00;;;;;;5039900;28;20225;-79
2023/09/23 10:08:53;;;;;;;0.80;0.80;;;26.00;44.00;;;;;;5039132;28;20202;-79
2023/09/23 10:11:29;;;;;;;0.98;0.50;;;26.00;44.00;;;;;;5039422;28;20667;-79
2023/09/23 10:13:58;;;;;;;0.60;0.60;;;26.10;44.20;;;;;;5039242;28;20218;-79
2023/09/23 10:16:28;;;;;;;1.10;0.90;;;26.10;44.00;;;;;;5039255;28;20223;-79
2023/09/23 10:18:56;;;;;;;1.20;1.10;;;26.10;43.90;;;;;;5039987;28;20191;-79
2023/09/23 10:21:24;;;;;;;1.05;0.93;;;26.00;44.00;;;;;;5038923;28;20202;-79
2023/09/23 10:23:51;;;;;;;1.50;0.90;;;25.90;44.10;;;;;;5038797;28;20198;-79
2023/09/23 10:26:19;;;;;;;1.48;0.85;;;25.90;44.30;;;;;;5038570;28;20237;-79
2023/09/23 10:28:57;;;;;;;0.80;0.77;;;25.80;44.40;;;;;;5039080;28;20199;-79
2023/09/23 10:31:27;;;;;;;0.80;0.80;;;25.80;44.60;;;;;;5039118;28;20549;-79
2023/09/23 10:33:54;;;;;;;0.70;0.70;;;25.70;44.60;;;;;;5037946;28;20219;-79
2023/09/23 10:36:21;;;;;;;2.17;0.85;;;25.70;44.70;;;;;;5037834;28;20556;-79
2023/09/23 10:38:48;;;;;;;1.13;0.90;;;25.60;44.80;;;;;;5038866;28;20206;-79
2023/09/23 10:41:15;;;;;;;0.80;0.80;;;25.60;45.00;;;;;;5039185;28;20649;-79
2023/09/23 10:43:42;;;;;;;1.10;1.00;;;25.50;45.00;;;;;;5022698;28;20191;-79
2023/09/23 10:46:10;;;;;;;0.98;0.70;;;25.50;45.00;;;;;;5038806;28;20215;-79
2023/09/23 10:48:40;;;;;;;1.23;0.85;;;25.40;45.20;;;;;;5038948;28;20199;-79
2023/09/23 10:51:08;;;;;;;1.35;1.05;;;25.40;45.40;;;;;;5039063;28;20223;-79
2023/09/23 10:53:36;;;;;;;0.68;0.65;;;25.30;45.40;;;;;;5038859;28;20226;-79
2023/09/23 10:56:03;;;;;;;0.85;0.85;;;25.20;45.50;;;;;;5022581;28;20310;-79
2023/09/23 10:58:31;;;;;;;1.10;0.90;;;25.20;46.20;;;;;;5038653;28;20226;-79
2023/09/23 11:00:58;;;;;;;1.00;0.75;;;25.10;45.60;;;;;;5038563;28;20621;-79
2023/09/23 11:03:25;;;;;;;1.30;0.90;;;25.10;45.90;;;;;;5038680;28;20566;-79
2023/09/23 11:05:54;;;;;;;0.95;0.73;;;25.00;46.10;;;;;;5022561;28;20610;-79
2023/09/23 11:08:22;;;;;;;1.10;0.98;;;25.00;46.30;;;;;;5038489;28;20554;-79
2023/09/23 11:10:49;;;;;;;1.00;0.90;;;25.00;46.30;;;;;;5037337;28;20198;-79
2023/09/23 11:13:16;;;;;;;0.95;0.80;;;25.00;46.40;;;;;;5037814;28;20198;-80
2023/09/23 11:15:45;;;;;;;0.95;0.80;;;25.10;46.30;;;;;;5037598;28;20246;-80
2023/09/23 11:18:13;;;;;;;0.82;0.82;;;25.10;46.30;;;;;;5038516;28;20205;-80
2023/09/23 11:20:42;;;;;;;1.00;0.85;;;25.20;46.20;;;;;;5037615;28;20199;-80
2023/09/23 11:23:11;;;;;;;1.25;0.95;;;25.10;46.10;;;;;;5037644;28;20203;-79
2023/09/23 11:25:39;;;;;;;0.90;0.77;;;25.20;46.10;;;;;;5037803;28;20215;-79
2023/09/23 11:28:07;;;;;;;0.85;0.80;;;25.20;45.90;;;;;;5037527;28;20661;-79
2023/09/23 11:30:33;;;;;;;0.98;0.90;;;25.20;46.00;;;;;;5037183;28;20201;-79
2023/09/23 11:33:01;;;;;;;1.10;0.80;;;25.20;45.90;;;;;;5037409;28;20266;-79
2023/09/23 11:35:28;;;;;;;1.05;0.95;;;25.20;45.90;;;;;;5021199;28;20223;-79
2023/09/23 11:37:56;;;;;;;1.17;0.93;;;25.10;46.30;;;;;;5055118;28;20282;-79
2023/09/23 11:40:25;;;;;;;2.83;1.02;;;25.10;45.60;;;;;;5037957;28;20257;-79
2023/09/23 11:42:53;;;;;;;3.10;1.00;;;25.00;46.30;;;;;;5037415;28;20203;-79
2023/09/23 11:45:21;;;;;;;2.15;1.10;;;25.00;46.80;;;;;;5037522;28;20222;-80
2023/09/23 11:47:49;;;;;;;1.50;1.00;;;25.00;47.00;;;;;;5037368;28;20215;-80
2023/09/23 11:50:16;;;;;;;2.05;1.10;;;24.90;47.00;;;;;;5037109;28;20206;-80
2023/09/23 11:52:42;;;;;;;2.20;1.10;;;24.90;46.70;;;;;;5021005;28;20246;-80
2023/09/23 11:55:12;;;;;;;2.38;1.02;;;24.90;46.70;;;;;;5036858;28;20214;-80
2023/09/23 11:57:41;;;;;;;2.03;1.00;;;24.90;47.10;;;;;;5037122;28;20230;-80
2023/09/23 12:00:10;;;;;;;2.17;0.98;;;24.90;47.00;;;;;;5036993;28;20610;-80
2023/09/23 12:02:38;;;;;;;1.27;1.10;;;24.90;47.10;;;;;;5036767;28;20294;-80
2023/09/23 12:05:07;;;;;;;1.25;0.85;;;24.90;47.40;;;;;;5036620;28;20227;-80
2023/09/23 12:07:34;;;;;;;2.70;1.13;;;24.90;47.10;;;;;;5036744;28;20200;-80
2023/09/23 12:10:01;;;;;;;1.80;0.90;;;24.90;47.40;;;;;;5036920;28;20194;-80
2023/09/23 12:12:28;;;;;;;1.73;1.08;;;24.90;47.10;;;;;;5036479;28;20194;-80
2023/09/23 12:14:57;;;;;;;3.35;1.20;;;24.90;46.90;;;;;;5037378;28;20214;-80
2023/09/23 12:17:24;;;;;;;0.90;0.77;;;24.80;47.70;;;;;;5037133;28;20198;-79
2023/09/23 12:19:51;;;;;;;1.10;1.00;;;24.80;48.10;;;;;;5036533;28;20229;-80
2023/09/23 12:25:01;;;;;;;2.60;1.27;;;24.70;48.10;;;;;;5034233;28;20662;-82
2023/09/23 12:27:29;;;;;;;1.20;1.10;;;24.60;48.00;;;;;;5036592;28;20287;-82
2023/09/23 12:29:57;;;;;;;2.40;1.17;;;24.60;48.10;;;;;;5036648;28;20195;-81
2023/09/23 12:32:24;;;;;;;1.75;1.15;;;24.60;48.10;;;;;;5043516;28;20223;-82
2023/09/23 12:34:52;;;;;;;1.30;0.90;;;24.60;48.40;;;;;;5022042;28;20221;-82
2023/09/23 12:37:19;;;;;;;1.73;1.10;;;24.50;48.70;;;;;;5037147;28;20221;-82
2023/09/23 12:39:46;;;;;;;2.20;1.20;;;24.50;48.90;;;;;;5036876;28;20203;-82
2023/09/23 12:42:14;;;;;;;1.55;1.30;;;24.50;48.90;;;;;;5039850;28;20199;-82
2023/09/23 12:44:41;;;;;;;4.13;1.60;;;24.40;49.30;;;;;;5038773;28;20191;-82
2023/09/23 12:47:10;;;;;;;3.00;2.20;;;24.50;49.40;;;;;;5036693;28;20268;-81
2023/09/23 12:49:39;;;;;;;2.50;1.45;;;24.40;49.30;;;;;;5036605;28;20539;-82
2023/09/23 12:52:07;;;;;;;2.55;1.83;;;24.40;49.60;;;;;;5021179;28;20565;-82
2023/09/23 12:54:35;;;;;;;3.00;1.60;;;24.40;49.80;;;;;;5036101;28;20621;-82
2023/09/23 12:57:01;;;;;;;3.03;1.98;;;24.30;50.00;;;;;;5036451;28;20214;-82